KLOZ/LOZ METAR and TAF weather

Enter ICAO airport designator
Station Type Date Time Source
KLOZ METAR 2020/01/27 10:53 UTC NOAA

KLOZ 271053Z AUTO 22003KT 5SM -RA BR OVC005 04/04 A2987 RMK AO2 SLP120 P0001 T00440039 $


Station Type Date Time Source
KLOZ Decoded METAR 2020/01/27 10:53 UTC NOAA

LONDON-CORBIN AIRPORT, KY, United States (KLOZ) 37-05N 084-04W 362M
Jan 27, 2020 - 05:53 AM EST / 2020.01.27 1053 UTC
Wind: from the SW (220 degrees) at 3 MPH (3 KT):0
Visibility: 5 mile(s):0
Sky conditions: overcast
Weather: light rain; mist
Precipitation last hour: 0.01 inches
Temperature: 39.9 F (4.4 C)
Dew Point: 39.0 F (3.9 C)
Relative Humidity: 96%
Pressure (altimeter): 29.87 in. Hg (1011 hPa)
ob: KLOZ 271053Z AUTO 22003KT 5SM -RA BR OVC005 04/04 A2987 RMK AO2 SLP120 P0001 T00440039
cycle: 11

Station Type Date Time Source
KLOZ TAF 2020/01/27 06:24 UTC NOAA

TAF KLOZ 270523Z 2706/2806 VRB03KT P6SM VCSH OVC015
FM270900 25002KT 3SM -RA BR OVC007
FM271300 VRB03KT 1SM BR VCSH OVC007
FM271500 VRB04KT 3SM BR OVC007
FM271700 VRB05KT P6SM OVC015

Example: see airport list